sensor_id;sensor_type;location;lat;lon;timestamp;pressure;altitude;pressure_sealevel;temperature;humidity
59043;BME280;44826;51.596;5.624;2024-03-23T00:53:45;100973.91;;;6.78;100.00
59043;BME280;44826;51.596;5.624;2024-03-23T00:56:11;100974.78;;;6.77;100.00
59043;BME280;44826;51.596;5.624;2024-03-23T00:58:36;100975.63;;;6.76;100.00
59043;BME280;44826;51.596;5.624;2024-03-23T01:01:01;100975.63;;;6.76;100.00
59043;BME280;44826;51.596;5.624;2024-03-23T01:03:29;100972.19;;;6.74;100.00
59043;BME280;44826;51.596;5.624;2024-03-23T01:05:54;100969.66;;;6.73;100.00
59043;BME280;44826;51.596;5.624;2024-03-23T01:08:19;100970.50;;;6.73;100.00
59043;BME280;44826;51.596;5.624;2024-03-23T01:10:58;100973.91;;;6.75;100.00
59043;BME280;44826;51.596;5.624;2024-03-23T01:13:24;100971.34;;;6.75;100.00
59043;BME280;44826;51.596;5.624;2024-03-23T01:15:50;100979.97;;;6.74;100.00
59043;BME280;44826;51.596;5.624;2024-03-23T01:18:17;100966.19;;;6.74;100.00
59043;BME280;44826;51.596;5.624;2024-03-23T01:20:43;100957.56;;;6.73;100.00
59043;BME280;44826;51.596;5.624;2024-03-23T01:23:08;100958.44;;;6.69;100.00
59043;BME280;44826;51.596;5.624;2024-03-23T01:25:33;100963.66;;;6.66;100.00
59043;BME280;44826;51.596;5.624;2024-03-23T01:27:58;100955.06;;;6.61;100.00
59043;BME280;44826;51.596;5.624;2024-03-23T01:30:24;100959.41;;;6.59;100.00
59043;BME280;44826;51.596;5.624;2024-03-23T01:32:49;100953.38;;;6.57;100.00
59043;BME280;44826;51.596;5.624;2024-03-23T01:35:14;100948.22;;;6.57;100.00
59043;BME280;44826;51.596;5.624;2024-03-23T01:37:40;100932.69;;;6.57;100.00
59043;BME280;44826;51.596;5.624;2024-03-23T01:40:05;100945.66;;;6.55;100.00
59043;BME280;44826;51.596;5.624;2024-03-23T01:42:31;100943.03;;;6.57;100.00
59043;BME280;44826;51.596;5.624;2024-03-23T01:44:56;100944.78;;;6.56;100.00
59043;BME280;44826;51.596;5.624;2024-03-23T01:47:22;100927.56;;;6.55;100.00
59043;BME280;44826;51.596;5.624;2024-03-23T01:49:47;100934.44;;;6.55;100.00
59043;BME280;44826;51.596;5.624;2024-03-23T01:52:12;100933.59;;;6.54;100.00
59043;BME280;44826;51.596;5.624;2024-03-23T01:54:38;100932.72;;;6.53;100.00
59043;BME280;44826;51.596;5.624;2024-03-23T01:57:04;100936.16;;;6.52;100.00
59043;BME280;44826;51.596;5.624;2024-03-23T01:59:30;100925.84;;;6.49;100.00
59043;BME280;44826;51.596;5.624;2024-03-23T02:01:55;100924.16;;;6.48;100.00
59043;BME280;44826;51.596;5.624;2024-03-23T02:04:21;100916.44;;;6.45;100.00
59043;BME280;44826;51.596;5.624;2024-03-23T02:06:46;100913.84;;;6.45;100.00
59043;BME280;44826;51.596;5.624;2024-03-23T02:09:12;100906.09;;;6.41;100.00
59043;BME280;44826;51.596;5.624;2024-03-23T02:11:37;100907.00;;;6.38;100.00
59043;BME280;44826;51.596;5.624;2024-03-23T02:14:02;100910.44;;;6.37;100.00
59043;BME280;44826;51.596;5.624;2024-03-23T02:16:27;100916.50;;;6.34;100.00
59043;BME280;44826;51.596;5.624;2024-03-23T02:18:53;100913.91;;;6.33;100.00
59043;BME280;44826;51.596;5.624;2024-03-23T02:21:18;100923.38;;;6.34;100.00
59043;BME280;44826;51.596;5.624;2024-03-23T02:23:44;100926.00;;;6.31;100.00
59043;BME280;44826;51.596;5.624;2024-03-23T02:26:09;100927.75;;;6.29;100.00
59043;BME280;44826;51.596;5.624;2024-03-23T02:28:34;100924.31;;;6.27;100.00
59043;BME280;44826;51.596;5.624;2024-03-23T02:31:00;100919.13;;;6.27;100.00
59043;BME280;44826;51.596;5.624;2024-03-23T02:33:26;100902.81;;;6.23;100.00
59043;BME280;44826;51.596;5.624;2024-03-23T02:35:55;100892.47;;;6.20;100.00
59043;BME280;44826;51.596;5.624;2024-03-23T02:38:21;100896.78;;;6.19;100.00
59043;BME280;44826;51.596;5.624;2024-03-23T02:40:46;100889.06;;;6.18;100.00
59043;BME280;44826;51.596;5.624;2024-03-23T02:43:12;100909.72;;;6.18;100.00
59043;BME280;44826;51.596;5.624;2024-03-23T02:45:37;100905.41;;;6.18;100.00
59043;BME280;44826;51.596;5.624;2024-03-23T02:48:03;100912.28;;;6.19;100.00
59043;BME280;44826;51.596;5.624;2024-03-23T02:50:29;100917.44;;;6.19;100.00
59043;BME280;44826;51.596;5.624;2024-03-23T02:52:54;100904.56;;;6.18;100.00
59043;BME280;44826;51.596;5.624;2024-03-23T02:55:19;100905.41;;;6.18;100.00
59043;BME280;44826;51.596;5.624;2024-03-23T02:57:44;100897.66;;;6.17;100.00
59043;BME280;44826;51.596;5.624;2024-03-23T03:00:10;100897.66;;;6.17;100.00
59043;BME280;44826;51.596;5.624;2024-03-23T03:02:36;100894.22;;;6.18;100.00
59043;BME280;44826;51.596;5.624;2024-03-23T03:05:03;100895.06;;;6.18;100.00
59043;BME280;44826;51.596;5.624;2024-03-23T03:07:30;100893.34;;;6.17;100.00
59043;BME280;44826;51.596;5.624;2024-03-23T03:09:55;100896.78;;;6.16;100.00
59043;BME280;44826;51.596;5.624;2024-03-23T03:12:20;100895.06;;;6.15;100.00
59043;BME280;44826;51.596;5.624;2024-03-23T03:14:46;100898.56;;;6.14;100.00
59043;BME280;44826;51.596;5.624;2024-03-23T03:17:11;100892.50;;;6.15;100.00
59043;BME280;44826;51.596;5.624;2024-03-23T03:19:36;100905.41;;;6.15;100.00
59043;BME280;44826;51.596;5.624;2024-03-23T03:22:02;100897.66;;;6.15;100.00
59043;BME280;44826;51.596;5.624;2024-03-23T03:24:29;100907.13;;;6.16;100.00
59043;BME280;44826;51.596;5.624;2024-03-23T03:26:55;100905.41;;;6.15;100.00
59043;BME280;44826;51.596;5.624;2024-03-23T03:29:20;100905.41;;;6.15;100.00
59043;BME280;44826;51.596;5.624;2024-03-23T03:31:45;100898.56;;;6.14;100.00
59043;BME280;44826;51.596;5.624;2024-03-23T03:34:11;100902.84;;;6.14;100.00
59043;BME280;44826;51.596;5.624;2024-03-23T03:36:36;100897.69;;;6.14;100.00
59043;BME280;44826;51.596;5.624;2024-03-23T03:39:02;100895.13;;;6.12;100.00
59043;BME280;44826;51.596;5.624;2024-03-23T03:41:31;100900.28;;;6.11;100.00
59043;BME280;44826;51.596;5.624;2024-03-23T03:43:57;100889.97;;;6.09;100.00
59043;BME280;44826;51.596;5.624;2024-03-23T03:46:26;100888.25;;;6.05;100.00
59043;BME280;44826;51.596;5.624;2024-03-23T03:48:51;100890.88;;;6.00;100.00
59043;BME280;44826;51.596;5.624;2024-03-23T03:51:17;100890.88;;;5.97;100.00
59043;BME280;44826;51.596;5.624;2024-03-23T03:53:42;100884.88;;;5.93;100.00
59043;BME280;44826;51.596;5.624;2024-03-23T03:56:07;100884.88;;;5.90;100.00
59043;BME280;44826;51.596;5.624;2024-03-23T03:58:33;100881.44;;;5.88;100.00
59043;BME280;44826;51.596;5.624;2024-03-23T04:00:58;100883.19;;;5.86;100.00
59043;BME280;44826;51.596;5.624;2024-03-23T04:03:23;100884.06;;;5.82;100.00
59043;BME280;44826;51.596;5.624;2024-03-23T04:05:53;100877.22;;;5.78;100.00
59043;BME280;44826;51.596;5.624;2024-03-23T04:08:19;100878.94;;;5.76;100.00
59043;BME280;44826;51.596;5.624;2024-03-23T04:10:44;100884.94;;;5.73;100.00
59043;BME280;44826;51.596;5.624;2024-03-23T04:13:11;100884.16;;;5.68;100.00
59043;BME280;44826;51.596;5.624;2024-03-23T04:15:36;100888.47;;;5.63;100.00
59043;BME280;44826;51.596;5.624;2024-03-23T04:18:02;100890.19;;;5.59;100.00
59043;BME280;44826;51.596;5.624;2024-03-23T04:20:27;100887.63;;;5.56;100.00
59043;BME280;44826;51.596;5.624;2024-03-23T04:22:52;100889.34;;;5.54;100.00
59043;BME280;44826;51.596;5.624;2024-03-23T04:25:19;100891.94;;;5.48;100.00
59043;BME280;44826;51.596;5.624;2024-03-23T04:27:44;100889.41;;;5.43;100.00
59043;BME280;44826;51.596;5.624;2024-03-23T04:30:10;100885.97;;;5.38;100.00
59043;BME280;44826;51.596;5.624;2024-03-23T04:32:39;100887.69;;;5.35;100.00
59043;BME280;44826;51.596;5.624;2024-03-23T04:35:05;100888.56;;;5.30;100.00
59043;BME280;44826;51.596;5.624;2024-03-23T04:37:34;100887.72;;;5.27;100.00
59043;BME280;44826;51.596;5.624;2024-03-23T04:40:00;100890.31;;;5.22;100.00
59043;BME280;44826;51.596;5.624;2024-03-23T04:42:27;100886.91;;;5.19;100.00
59043;BME280;44826;51.596;5.624;2024-03-23T04:44:52;100884.31;;;5.17;100.00
59043;BME280;44826;51.596;5.624;2024-03-23T04:47:18;100891.19;;;5.15;100.00
59043;BME280;44826;51.596;5.624;2024-03-23T04:49:43;100890.34;;;5.13;100.00
59043;BME280;44826;51.596;5.624;2024-03-23T04:52:08;100886.06;;;5.10;100.00
59043;BME280;44826;51.596;5.624;2024-03-23T04:54:34;100886.94;;;5.08;100.00
59043;BME280;44826;51.596;5.624;2024-03-23T04:56:59;100892.06;;;5.06;100.00
59043;BME280;44826;51.596;5.624;2024-03-23T04:59:25;100880.91;;;5.03;100.00
59043;BME280;44826;51.596;5.624;2024-03-23T05:01:50;100884.34;;;5.01;100.00
59043;BME280;44826;51.596;5.624;2024-03-23T05:04:15;100885.22;;;4.97;100.00
59043;BME280;44826;51.596;5.624;2024-03-23T05:06:41;100900.69;;;4.96;100.00
59043;BME280;44826;51.596;5.624;2024-03-23T05:09:06;100891.25;;;4.93;100.00
59043;BME280;44826;51.596;5.624;2024-03-23T05:11:32;100897.25;;;4.91;100.00
59043;BME280;44826;51.596;5.624;2024-03-23T05:13:58;100894.69;;;4.86;100.00
59043;BME280;44826;51.596;5.624;2024-03-23T05:16:23;100886.09;;;4.81;100.00
59043;BME280;44826;51.596;5.624;2024-03-23T05:18:49;100890.41;;;4.79;100.00
59043;BME280;44826;51.596;5.624;2024-03-23T05:21:14;100887.00;;;4.77;100.00
59043;BME280;44826;51.596;5.624;2024-03-23T05:23:39;100885.25;;;4.74;100.00
59043;BME280;44826;51.596;5.624;2024-03-23T05:26:05;100882.69;;;4.73;100.00
59043;BME280;44826;51.596;5.624;2024-03-23T05:28:30;100884.41;;;4.70;100.00
59043;BME280;44826;51.596;5.624;2024-03-23T05:30:55;100879.25;;;4.67;100.00
59043;BME280;44826;51.596;5.624;2024-03-23T05:33:22;100878.38;;;4.65;100.00
59043;BME280;44826;51.596;5.624;2024-03-23T05:35:56;100880.97;;;4.65;100.00
59043;BME280;44826;51.596;5.624;2024-03-23T05:38:22;100882.69;;;4.65;100.00
59043;BME280;44826;51.596;5.624;2024-03-23T05:40:57;100886.13;;;4.62;100.00
59043;BME280;44826;51.596;5.624;2024-03-23T05:43:23;100880.13;;;4.62;100.00
59043;BME280;44826;51.596;5.624;2024-03-23T05:45:55;100877.53;;;4.62;100.00
59043;BME280;44826;51.596;5.624;2024-03-23T05:48:21;100887.84;;;4.60;100.00
59043;BME280;44826;51.596;5.624;2024-03-23T05:50:47;100884.41;;;4.60;100.00
59043;BME280;44826;51.596;5.624;2024-03-23T05:53:12;100885.28;;;4.60;100.00
59043;BME280;44826;51.596;5.624;2024-03-23T05:55:38;100879.25;;;4.60;100.00
59043;BME280;44826;51.596;5.624;2024-03-23T05:58:03;100880.13;;;4.60;100.00
59043;BME280;44826;51.596;5.624;2024-03-23T06:00:29;100874.13;;;4.58;100.00
59043;BME280;44826;51.596;5.624;2024-03-23T06:02:54;100885.28;;;4.60;100.00
59043;BME280;44826;51.596;5.624;2024-03-23T06:05:19;100884.41;;;4.60;100.00
59043;BME280;44826;51.596;5.624;2024-03-23T06:07:45;100887.84;;;4.60;100.00
59043;BME280;44826;51.596;5.624;2024-03-23T06:10:10;100892.97;;;4.63;100.00
59043;BME280;44826;51.596;5.624;2024-03-23T06:12:35;100886.97;;;4.64;100.00
59043;BME280;44826;51.596;5.624;2024-03-23T06:15:01;100887.84;;;4.65;100.00
59043;BME280;44826;51.596;5.624;2024-03-23T06:17:27;100893.88;;;4.67;100.00
59043;BME280;44826;51.596;5.624;2024-03-23T06:19:52;100882.69;;;4.69;100.00
59043;BME280;44826;51.596;5.624;2024-03-23T06:22:17;100880.97;;;4.73;100.00
59043;BME280;44826;51.596;5.624;2024-03-23T06:24:44;100893.00;;;4.76;100.00
59043;BME280;44826;51.596;5.624;2024-03-23T06:27:09;100893.88;;;4.78;100.00
59043;BME280;44826;51.596;5.624;2024-03-23T06:29:34;100895.56;;;4.82;100.00
59043;BME280;44826;51.596;5.624;2024-03-23T06:32:01;100898.16;;;4.86;100.00
59043;BME280;44826;51.596;5.624;2024-03-23T06:34:27;100894.69;;;4.89;100.00
59043;BME280;44826;51.596;5.624;2024-03-23T06:36:52;100898.97;;;4.96;100.00
59043;BME280;44826;51.596;5.624;2024-03-23T06:39:17;100897.22;;;5.06;100.00
59043;BME280;44826;51.596;5.624;2024-03-23T06:41:51;100895.50;;;5.21;100.00
59043;BME280;44826;51.596;5.624;2024-03-23T06:44:17;100892.03;;;5.34;100.00
59043;BME280;44826;51.596;5.624;2024-03-23T06:46:42;100893.69;;;5.41;100.00
59043;BME280;44826;51.596;5.624;2024-03-23T06:49:08;100894.56;;;5.43;100.00
59043;BME280;44826;51.596;5.624;2024-03-23T06:51:33;100898.88;;;5.46;100.00
59043;BME280;44826;51.596;5.624;2024-03-23T06:53:58;100897.97;;;5.50;100.00
59043;BME280;44826;51.596;5.624;2024-03-23T06:56:23;100898.81;;;5.52;100.00
59043;BME280;44826;51.596;5.624;2024-03-23T06:58:49;100905.69;;;5.56;100.00
59043;BME280;44826;51.596;5.624;2024-03-23T07:01:14;100897.09;;;5.60;100.00
59043;BME280;44826;51.596;5.624;2024-03-23T07:03:39;100908.25;;;5.62;100.00
59043;BME280;44826;51.596;5.624;2024-03-23T07:06:05;100897.06;;;5.64;100.00
59043;BME280;44826;51.596;5.624;2024-03-23T07:08:30;100904.78;;;5.67;100.00
59043;BME280;44826;51.596;5.624;2024-03-23T07:10:55;100895.31;;;5.69;100.00
59043;BME280;44826;51.596;5.624;2024-03-23T07:13:21;100898.75;;;5.74;100.00
59043;BME280;44826;51.596;5.624;2024-03-23T07:15:51;100902.16;;;5.77;100.00
59043;BME280;44826;51.596;5.624;2024-03-23T07:18:17;100898.69;;;5.85;100.00
59043;BME280;44826;51.596;5.624;2024-03-23T07:20:42;100894.31;;;5.98;100.00
59043;BME280;44826;51.596;5.624;2024-03-23T07:23:07;100897.72;;;6.09;100.00
59043;BME280;44826;51.596;5.624;2024-03-23T07:25:33;100891.63;;;6.16;100.00
59043;BME280;44826;51.596;5.624;2024-03-23T07:27:58;100903.69;;;6.17;100.00
59043;BME280;44826;51.596;5.624;2024-03-23T07:30:24;100911.47;;;6.14;100.00
59043;BME280;44826;51.596;5.624;2024-03-23T07:32:50;100914.13;;;6.03;100.00
59043;BME280;44826;51.596;5.624;2024-03-23T07:35:15;100904.69;;;5.88;100.00
59043;BME280;44826;51.596;5.624;2024-03-23T07:37:41;100915.88;;;5.84;100.00
59043;BME280;44826;51.596;5.624;2024-03-23T07:40:07;100907.34;;;5.76;100.00
59043;BME280;44826;51.596;5.624;2024-03-23T07:42:32;100906.47;;;5.77;100.00
59043;BME280;44826;51.596;5.624;2024-03-23T07:44:58;100910.78;;;5.75;100.00
59043;BME280;44826;51.596;5.624;2024-03-23T07:47:23;100906.47;;;5.74;100.00
59043;BME280;44826;51.596;5.624;2024-03-23T07:49:48;100898.72;;;5.72;100.00
59043;BME280;44826;51.596;5.624;2024-03-23T07:52:14;100904.75;;;5.74;100.00
59043;BME280;44826;51.596;5.624;2024-03-23T07:54:39;100896.13;;;5.78;100.00
59043;BME280;44826;51.596;5.624;2024-03-23T07:57:04;100901.25;;;5.86;100.00
59043;BME280;44826;51.596;5.624;2024-03-23T07:59:31;100898.66;;;5.92;100.00
59043;BME280;44826;51.596;5.624;2024-03-23T08:01:57;100900.38;;;5.93;100.00
59043;BME280;44826;51.596;5.624;2024-03-23T08:04:22;100901.22;;;5.91;100.00
59043;BME280;44826;51.596;5.624;2024-03-23T08:06:47;100895.22;;;5.90;100.00
59043;BME280;44826;51.596;5.624;2024-03-23T08:09:13;100897.78;;;5.92;100.00
59043;BME280;44826;51.596;5.624;2024-03-23T08:11:38;100895.19;;;5.97;100.00
59043;BME280;44826;51.596;5.624;2024-03-23T08:14:04;100905.50;;;6.00;100.00
59043;BME280;44826;51.596;5.624;2024-03-23T08:16:29;100901.19;;;6.02;100.00
59043;BME280;44826;51.596;5.624;2024-03-23T08:18:55;100902.03;;;6.10;100.00
59043;BME280;44826;51.596;5.624;2024-03-23T08:21:21;100907.09;;;6.26;100.00
59043;BME280;44826;51.596;5.624;2024-03-23T08:23:46;100906.13;;;6.39;100.00
59043;BME280;44826;51.596;5.624;2024-03-23T08:26:14;100901.75;;;6.47;100.00
59043;BME280;44826;51.596;5.624;2024-03-23T08:28:39;100900.84;;;6.56;99.76
59043;BME280;44826;51.596;5.624;2024-03-23T08:31:09;100898.13;;;6.67;99.76
59043;BME280;44826;51.596;5.624;2024-03-23T08:33:35;100900.69;;;6.73;99.11
59043;BME280;44826;51.596;5.624;2024-03-23T08:36:08;100905.69;;;6.89;99.61
59043;BME280;44826;51.596;5.624;2024-03-23T08:38:34;100899.53;;;7.04;98.72
59043;BME280;44826;51.596;5.624;2024-03-23T08:41:00;100907.22;;;7.11;96.69
59043;BME280;44826;51.596;5.624;2024-03-23T08:43:27;100895.97;;;7.16;97.18
59043;BME280;44826;51.596;5.624;2024-03-23T08:45:53;100902.84;;;7.18;96.60
59043;BME280;44826;51.596;5.624;2024-03-23T08:48:19;100894.13;;;7.24;95.24
59043;BME280;44826;51.596;5.624;2024-03-23T08:50:46;100902.72;;;7.29;94.98
59043;BME280;44826;51.596;5.624;2024-03-23T08:53:11;100881.13;;;7.33;94.09
59043;BME280;44826;51.596;5.624;2024-03-23T08:55:37;100880.13;;;7.43;94.51
59043;BME280;44826;51.596;5.624;2024-03-23T08:58:02;100876.59;;;7.51;92.91
59043;BME280;44826;51.596;5.624;2024-03-23T09:00:29;100885.97;;;7.59;91.34
59043;BME280;44826;51.596;5.624;2024-03-23T09:02:54;100877.28;;;7.65;90.44
59043;BME280;44826;51.596;5.624;2024-03-23T09:05:20;100889.25;;;7.74;91.60
59043;BME280;44826;51.596;5.624;2024-03-23T09:07:46;100882.13;;;7.88;91.89
59043;BME280;44826;51.596;5.624;2024-03-23T09:10:11;100888.81;;;8.03;89.00
59043;BME280;44826;51.596;5.624;2024-03-23T09:12:36;100877.53;;;8.09;89.59
59043;BME280;44826;51.596;5.624;2024-03-23T09:15:02;100869.72;;;8.11;88.67
59043;BME280;44826;51.596;5.624;2024-03-23T09:17:27;100871.50;;;8.05;89.81
59043;BME280;44826;51.596;5.624;2024-03-23T09:19:53;100871.69;;;7.93;88.77
59043;BME280;44826;51.596;5.624;2024-03-23T09:22:18;100885.72;;;7.78;89.27
59043;BME280;44826;51.596;5.624;2024-03-23T09:24:43;100881.75;;;7.52;88.68
59043;BME280;44826;51.596;5.624;2024-03-23T09:27:09;100895.75;;;7.36;89.66
59043;BME280;44826;51.596;5.624;2024-03-23T09:29:34;100890.69;;;7.25;89.03
59043;BME280;44826;51.596;5.624;2024-03-23T09:31:59;100886.56;;;7.05;89.08
59043;BME280;44826;51.596;5.624;2024-03-23T09:34:24;100887.56;;;6.92;89.74
59043;BME280;44826;51.596;5.624;2024-03-23T09:36:51;100886.84;;;6.77;90.12
59043;BME280;44826;51.596;5.624;2024-03-23T09:39:17;100882.69;;;6.64;89.78
59043;BME280;44826;51.596;5.624;2024-03-23T09:41:42;100881.03;;;6.53;90.93
59043;BME280;44826;51.596;5.624;2024-03-23T09:44:08;100878.47;;;6.52;91.57
59043;BME280;44826;51.596;5.624;2024-03-23T09:46:33;100877.59;;;6.53;92.04
59043;BME280;44826;51.596;5.624;2024-03-23T09:49:01;100882.72;;;6.58;92.18
59043;BME280;44826;51.596;5.624;2024-03-23T09:51:29;100879.25;;;6.62;91.01
59043;BME280;44826;51.596;5.624;2024-03-23T09:53:55;100877.44;;;6.67;91.01
59043;BME280;44826;51.596;5.624;2024-03-23T09:56:21;100871.38;;;6.74;90.03
59043;BME280;44826;51.596;5.624;2024-03-23T09:58:46;100873.03;;;6.81;90.05
59043;BME280;44826;51.596;5.624;2024-03-23T10:01:12;100872.91;;;6.92;90.19
59043;BME280;44826;51.596;5.624;2024-03-23T10:03:46;100869.31;;;7.07;89.54
59043;BME280;44826;51.596;5.624;2024-03-23T10:06:11;100867.44;;;7.23;88.35
59043;BME280;44826;51.596;5.624;2024-03-23T10:08:36;100856.00;;;7.38;89.23
59043;BME280;44826;51.596;5.624;2024-03-23T10:11:16;100860.13;;;7.56;89.54
59043;BME280;44826;51.596;5.624;2024-03-23T10:13:42;100858.19;;;7.69;86.06
59043;BME280;44826;51.596;5.624;2024-03-23T10:16:09;100866.78;;;7.76;85.39
59043;BME280;44826;51.596;5.624;2024-03-23T10:18:38;100859.88;;;7.75;84.50
59043;BME280;44826;51.596;5.624;2024-03-23T10:21:09;100855.53;;;7.75;85.29
59043;BME280;44826;51.596;5.624;2024-03-23T10:23:36;100859.88;;;7.75;87.72
59043;BME280;44826;51.596;5.624;2024-03-23T10:26:21;100868.53;;;7.72;85.52
59043;BME280;44826;51.596;5.624;2024-03-23T10:28:58;100873.75;;;7.69;83.75
59043;BME280;44826;51.596;5.624;2024-03-23T10:31:25;100876.41;;;7.66;82.26
59043;BME280;44826;51.596;5.624;2024-03-23T10:33:51;100878.25;;;7.55;82.69
59043;BME280;44826;51.596;5.624;2024-03-23T10:36:19;100879.16;;;7.52;80.71
59043;BME280;44826;51.596;5.624;2024-03-23T10:38:46;100880.78;;;7.59;80.56
59043;BME280;44826;51.596;5.624;2024-03-23T10:41:12;100885.94;;;7.61;80.52
59043;BME280;44826;51.596;5.624;2024-03-23T10:43:38;100886.75;;;7.65;81.08
59043;BME280;44826;51.596;5.624;2024-03-23T10:46:04;100889.38;;;7.63;81.94
59043;BME280;44826;51.596;5.624;2024-03-23T10:48:30;100899.78;;;7.58;82.38
59043;BME280;44826;51.596;5.624;2024-03-23T10:50:56;100897.31;;;7.51;80.13
59043;BME280;44826;51.596;5.624;2024-03-23T10:53:25;100888.00;;;7.34;78.20
59043;BME280;44826;51.596;5.624;2024-03-23T10:55:52;100883.81;;;7.21;79.04
59043;BME280;44826;51.596;5.624;2024-03-23T10:58:42;100887.41;;;7.10;81.26
59043;BME280;44826;51.596;5.624;2024-03-23T11:01:13;100890.91;;;7.03;81.30
59043;BME280;44826;51.596;5.624;2024-03-23T11:03:40;100882.38;;;6.95;82.03
59043;BME280;44826;51.596;5.624;2024-03-23T11:06:09;100882.41;;;6.92;82.44
59043;BME280;44826;51.596;5.624;2024-03-23T11:08:40;100887.56;;;6.92;82.92
59043;BME280;44826;51.596;5.624;2024-03-23T11:11:21;100878.06;;;6.97;83.68
59043;BME280;44826;51.596;5.624;2024-03-23T11:13:49;100873.63;;;7.08;84.07
59043;BME280;44826;51.596;5.624;2024-03-23T11:16:27;100870.75;;;7.33;83.67
59043;BME280;44826;51.596;5.624;2024-03-23T11:21:58;100884.72;;;7.88;84.83
59043;BME280;44826;51.596;5.624;2024-03-23T11:24:23;100882.69;;;8.11;81.12
59043;BME280;44826;51.596;5.624;2024-03-23T11:26:49;100882.63;;;8.14;79.78
59043;BME280;44826;51.596;5.624;2024-03-23T11:29:16;100922.56;;;8.00;81.89
59043;BME280;44826;51.596;5.624;2024-03-23T11:31:52;100917.84;;;7.63;84.55
59043;BME280;44826;51.596;5.624;2024-03-23T11:34:19;100888.97;;;7.25;81.82
59043;BME280;44826;51.596;5.624;2024-03-23T11:36:46;100885.88;;;6.91;84.73
59043;BME280;44826;51.596;5.624;2024-03-23T11:39:15;100869.56;;;6.84;85.62
59043;BME280;44826;51.596;5.624;2024-03-23T11:41:56;100879.88;;;6.86;85.71
59043;BME280;44826;51.596;5.624;2024-03-23T11:44:24;100872.03;;;6.95;88.51
59043;BME280;44826;51.596;5.624;2024-03-23T11:46:50;100870.97;;;7.13;88.66
59043;BME280;44826;51.596;5.624;2024-03-23T11:49:28;100869.09;;;7.26;87.37
59043;BME280;44826;51.596;5.624;2024-03-23T11:51:54;100866.50;;;7.29;87.19
59043;BME280;44826;51.596;5.624;2024-03-23T11:54:22;100867.25;;;7.39;88.91
59043;BME280;44826;51.596;5.624;2024-03-23T11:56:57;100849.81;;;7.53;89.41
59043;BME280;44826;51.596;5.624;2024-03-23T11:59:37;100871.13;;;7.72;87.75
59043;BME280;44826;51.596;5.624;2024-03-23T12:02:07;100847.78;;;7.75;84.52
59043;BME280;44826;51.596;5.624;2024-03-23T12:04:33;100845.94;;;7.82;83.80
59043;BME280;44826;51.596;5.624;2024-03-23T12:07:12;100845.53;;;8.12;84.48
59043;BME280;44826;51.596;5.624;2024-03-23T12:09:38;100859.03;;;8.31;82.88
59043;BME280;44826;51.596;5.624;2024-03-23T12:12:14;100832.84;;;8.49;80.06
59043;BME280;44826;51.596;5.624;2024-03-23T12:14:41;100830.00;;;8.63;77.50
59043;BME280;44826;51.596;5.624;2024-03-23T12:17:14;100842.06;;;8.66;74.22
59043;BME280;44826;51.596;5.624;2024-03-23T12:19:41;100843.91;;;8.59;70.64
59043;BME280;44826;51.596;5.624;2024-03-23T12:22:09;100839.03;;;8.38;73.84
59043;BME280;44826;51.596;5.624;2024-03-23T12:24:35;100843.56;;;8.26;74.62
59043;BME280;44826;51.596;5.624;2024-03-23T12:27:01;100846.31;;;8.17;73.80
59043;BME280;44826;51.596;5.624;2024-03-23T12:29:31;100850.75;;;8.09;75.34
59043;BME280;44826;51.596;5.624;2024-03-23T12:31:59;100850.88;;;8.01;73.78
59043;BME280;44826;51.596;5.624;2024-03-23T12:34:26;100842.38;;;7.93;72.82
59043;BME280;44826;51.596;5.624;2024-03-23T12:36:51;100838.78;;;8.00;73.75
59043;BME280;44826;51.596;5.624;2024-03-23T12:39:16;100837.63;;;8.19;73.98
59043;BME280;44826;51.596;5.624;2024-03-23T12:41:42;100838.91;;;8.50;75.07
59043;BME280;44826;51.596;5.624;2024-03-23T12:44:07;100840.38;;;8.63;74.08
59043;BME280;44826;51.596;5.624;2024-03-23T12:46:36;100839.59;;;8.60;74.79
59043;BME280;44826;51.596;5.624;2024-03-23T12:49:02;100858.69;;;8.54;74.20
59043;BME280;44826;51.596;5.624;2024-03-23T12:51:28;100853.75;;;8.37;76.06
59043;BME280;44826;51.596;5.624;2024-03-23T12:53:53;100839.31;;;8.22;77.07
59043;BME280;44826;51.596;5.624;2024-03-23T12:56:19;100834.94;;;8.26;78.09
59043;BME280;44826;51.596;5.624;2024-03-23T12:58:44;100835.69;;;8.32;77.34
59043;BME280;44826;51.596;5.624;2024-03-23T13:01:09;100839.03;;;8.38;76.07
59043;BME280;44826;51.596;5.624;2024-03-23T13:03:35;100835.66;;;8.35;75.95
59043;BME280;44826;51.596;5.624;2024-03-23T13:06:00;100844.41;;;8.28;74.73
59043;BME280;44826;51.596;5.624;2024-03-23T13:08:25;100847.91;;;8.24;76.00
59043;BME280;44826;51.596;5.624;2024-03-23T13:10:53;100851.34;;;8.28;75.89
59043;BME280;44826;51.596;5.624;2024-03-23T13:13:20;100854.75;;;8.28;75.61
59043;BME280;44826;51.596;5.624;2024-03-23T13:15:50;100853.97;;;8.23;75.02
59043;BME280;44826;51.596;5.624;2024-03-23T13:18:15;100860.09;;;8.19;75.37
59043;BME280;44826;51.596;5.624;2024-03-23T13:20:41;100858.53;;;8.09;77.29
59043;BME280;44826;51.596;5.624;2024-03-23T13:23:06;100864.78;;;7.95;78.13
59043;BME280;44826;51.596;5.624;2024-03-23T13:25:31;100859.69;;;7.87;80.04
59043;BME280;44826;51.596;5.624;2024-03-23T13:27:58;100854.50;;;7.87;81.28
59043;BME280;44826;51.596;5.624;2024-03-23T13:30:23;100861.25;;;7.99;80.48
59043;BME280;44826;51.596;5.624;2024-03-23T13:32:49;100855.94;;;8.09;78.42
59043;BME280;44826;51.596;5.624;2024-03-23T13:35:14;100848.13;;;8.12;79.99
59043;BME280;44826;51.596;5.624;2024-03-23T13:37:39;100853.34;;;8.10;77.38
59043;BME280;44826;51.596;5.624;2024-03-23T13:40:06;100861.19;;;8.04;76.66
59043;BME280;44826;51.596;5.624;2024-03-23T13:42:31;100850.28;;;7.82;77.59
59043;BME280;44826;51.596;5.624;2024-03-23T13:44:57;100837.56;;;7.65;78.53
59043;BME280;44826;51.596;5.624;2024-03-23T13:47:22;100838.44;;;7.65;78.96